createdAt,value
2023-03-20T00:02:18.577Z,100.00
2023-03-20T00:04:46.584Z,100.00
2023-03-20T00:07:14.675Z,100.00
2023-03-20T00:09:42.530Z,100.00
2023-03-20T00:12:15.676Z,100.00
2023-03-20T00:14:45.244Z,100.00
2023-03-20T00:17:20.066Z,100.00
2023-03-20T00:19:48.136Z,100.00
2023-03-20T00:22:16.005Z,100.00
2023-03-20T00:24:44.043Z,100.00
2023-03-20T00:27:15.405Z,100.00
2023-03-20T00:29:45.819Z,100.00
2023-03-20T00:32:15.105Z,100.00
2023-03-20T00:34:43.296Z,100.00
2023-03-20T00:37:12.590Z,100.00
2023-03-20T00:39:40.862Z,100.00
2023-03-20T00:42:19.401Z,100.00
2023-03-20T00:44:54.426Z,100.00
2023-03-20T00:47:27.005Z,100.00
2023-03-20T00:49:57.828Z,100.00
2023-03-20T00:52:27.239Z,100.00
2023-03-20T00:54:55.221Z,100.00
2023-03-20T00:57:27.244Z,100.00
2023-03-20T01:00:00.225Z,100.00
2023-03-20T01:02:31.126Z,100.00
2023-03-20T01:05:01.147Z,100.00
2023-03-20T01:07:29.124Z,100.00
2023-03-20T01:09:56.999Z,100.00
2023-03-20T01:12:24.936Z,100.00
2023-03-20T01:14:57.570Z,100.00
2023-03-20T01:17:27.523Z,100.00
2023-03-20T01:19:55.406Z,100.00
2023-03-20T01:22:23.441Z,100.00
2023-03-20T01:24:51.375Z,100.00
2023-03-20T01:27:20.936Z,100.00
2023-03-20T01:29:48.891Z,100.00
2023-03-20T01:32:20.410Z,100.00
2023-03-20T01:34:54.580Z,100.00
2023-03-20T01:37:29.020Z,100.00
2023-03-20T01:40:02.012Z,100.00
2023-03-20T01:42:33.406Z,100.00
2023-03-20T01:45:01.403Z,100.00
2023-03-20T01:47:31.938Z,100.00
2023-03-20T01:50:26.169Z,100.00
2023-03-20T01:53:10.867Z,100.00
2023-03-20T01:55:45.839Z,100.00
2023-03-20T01:58:20.666Z,100.00
2023-03-20T02:00:49.882Z,100.00
2023-03-20T02:03:21.689Z,100.00
2023-03-20T02:06:09.205Z,100.00
2023-03-20T02:09:04.550Z,100.00
2023-03-20T02:11:41.110Z,100.00
2023-03-20T02:14:10.001Z,100.00
2023-03-20T02:16:48.067Z,100.00
2023-03-20T02:19:47.025Z,100.00
2023-03-20T02:22:39.961Z,100.00
2023-03-20T02:25:47.611Z,100.00
2023-03-20T02:28:49.547Z,100.00
2023-03-20T02:31:43.558Z,100.00
2023-03-20T02:34:45.626Z,100.00
2023-03-20T02:37:58.506Z,100.00
2023-03-20T02:40:35.739Z,100.00
2023-03-20T02:43:12.877Z,100.00
2023-03-20T02:45:52.912Z,100.00
2023-03-20T02:48:34.591Z,100.00
2023-03-20T02:51:11.521Z,100.00
2023-03-20T02:53:51.341Z,100.00
2023-03-20T02:56:26.261Z,100.00
2023-03-20T02:59:02.282Z,100.00
2023-03-20T03:01:34.930Z,100.00
2023-03-20T03:04:07.769Z,100.00
2023-03-20T03:06:38.606Z,100.00
2023-03-20T03:09:14.863Z,100.00
2023-03-20T03:11:49.176Z,100.00
2023-03-20T03:14:25.473Z,100.00
2023-03-20T03:16:58.089Z,100.00
2023-03-20T03:19:30.108Z,100.00
2023-03-20T03:21:59.125Z,100.00
2023-03-20T03:24:40.775Z,100.00
2023-03-20T03:27:18.501Z,100.00
2023-03-20T03:29:52.388Z,100.00
2023-03-20T03:32:25.961Z,100.00
2023-03-20T03:34:54.777Z,100.00
2023-03-20T03:37:32.091Z,100.00
2023-03-20T03:40:11.753Z,100.00
2023-03-20T03:42:44.971Z,100.00
2023-03-20T03:45:17.950Z,100.00
2023-03-20T03:47:52.153Z,100.00
2023-03-20T03:50:23.658Z,100.00
2023-03-20T03:52:53.615Z,100.00
2023-03-20T03:55:26.715Z,100.00
2023-03-20T03:58:11.142Z,100.00
2023-03-20T04:00:42.856Z,100.00
2023-03-20T04:03:11.862Z,100.00
2023-03-20T04:05:43.855Z,100.00
2023-03-20T04:08:11.812Z,100.00
2023-03-20T04:10:43.508Z,100.00
2023-03-20T04:13:11.788Z,100.00
2023-03-20T04:15:39.827Z,100.00
2023-03-20T04:18:09.355Z,100.00
2023-03-20T04:20:39.998Z,100.00
2023-03-20T04:23:07.978Z,100.00
2023-03-20T04:25:37.308Z,100.00
2023-03-20T04:28:07.423Z,100.00
2023-03-20T04:31:03.585Z,100.00
2023-03-20T04:33:49.946Z,100.00
2023-03-20T04:36:36.389Z,100.00
2023-03-20T04:39:06.764Z,100.00
2023-03-20T04:41:35.341Z,100.00
2023-03-20T04:44:05.479Z,100.00
2023-03-20T04:46:34.282Z,100.00
2023-03-20T04:49:05.681Z,100.00
2023-03-20T04:51:33.698Z,100.00
2023-03-20T04:54:01.812Z,100.00
2023-03-20T04:56:29.947Z,100.00
2023-03-20T04:59:12.560Z,100.00
2023-03-20T05:01:40.907Z,100.00
2023-03-20T05:04:09.524Z,100.00
2023-03-20T05:06:38.120Z,100.00
2023-03-20T05:09:06.153Z,100.00
2023-03-20T05:11:36.070Z,100.00
2023-03-20T05:14:06.801Z,100.00
2023-03-20T05:16:46.924Z,100.00
2023-03-20T05:19:23.742Z,100.00
2023-03-20T05:22:10.292Z,100.00
2023-03-20T05:24:41.277Z,100.00
2023-03-20T05:27:27.708Z,100.00
2023-03-20T05:30:27.991Z,100.00
2023-03-20T05:33:16.258Z,100.00
2023-03-20T05:36:03.279Z,100.00
2023-03-20T05:38:49.684Z,100.00
2023-03-20T05:41:27.014Z,100.00
2023-03-20T05:44:13.122Z,100.00
2023-03-20T05:46:51.892Z,100.00
2023-03-20T05:49:39.481Z,100.00
2023-03-20T05:52:26.624Z,100.00
2023-03-20T05:55:33.801Z,100.00
2023-03-20T05:58:15.514Z,100.00
2023-03-20T06:00:59.862Z,100.00
2023-03-20T06:03:47.800Z,100.00
2023-03-20T06:06:23.074Z,100.00
2023-03-20T06:08:52.934Z,100.00
2023-03-20T06:11:21.438Z,100.00
2023-03-20T06:13:51.200Z,100.00
2023-03-20T06:16:19.688Z,100.00
2023-03-20T06:18:50.268Z,100.00
2023-03-20T06:21:18.433Z,100.00
2023-03-20T06:23:48.405Z,100.00
2023-03-20T06:26:16.753Z,100.00
2023-03-20T06:28:56.659Z,100.00
2023-03-20T06:31:24.730Z,100.00
2023-03-20T06:33:52.805Z,100.00
2023-03-20T06:36:21.227Z,100.00
2023-03-20T06:38:57.402Z,100.00
2023-03-20T06:41:34.368Z,100.00
2023-03-20T06:44:07.090Z,100.00
2023-03-20T06:46:54.099Z,100.00
2023-03-20T06:49:22.494Z,100.00
2023-03-20T06:51:51.290Z,100.00
2023-03-20T06:54:27.469Z,100.00
2023-03-20T06:56:56.535Z,100.00
2023-03-20T06:59:24.911Z,100.00
2023-03-20T07:01:57.499Z,100.00
2023-03-20T07:04:27.699Z,100.00
2023-03-20T07:06:59.619Z,100.00
2023-03-20T07:09:29.182Z,100.00
2023-03-20T07:11:57.265Z,100.00
2023-03-20T07:14:25.689Z,100.00
2023-03-20T07:17:00.758Z,100.00
2023-03-20T07:19:29.024Z,100.00
2023-03-20T07:22:03.305Z,100.00
2023-03-20T07:24:38.609Z,100.00
2023-03-20T07:27:08.225Z,100.00
2023-03-20T07:29:39.326Z,100.00
2023-03-20T07:32:13.452Z,100.00
2023-03-20T07:34:50.204Z,100.00
2023-03-20T07:37:22.330Z,100.00
2023-03-20T07:40:02.569Z,100.00
2023-03-20T07:42:47.512Z,100.00
2023-03-20T07:45:32.782Z,100.00
2023-03-20T07:48:00.898Z,100.00
2023-03-20T07:50:28.872Z,100.00
2023-03-20T07:52:57.037Z,100.00
2023-03-20T07:55:26.604Z,100.00
2023-03-20T07:57:54.604Z,100.00
2023-03-20T08:00:23.210Z,100.00
2023-03-20T08:02:51.302Z,100.00
2023-03-20T08:05:19.552Z,100.00
2023-03-20T08:07:47.808Z,100.00
2023-03-20T08:10:16.630Z,100.00
2023-03-20T08:12:45.963Z,100.00
2023-03-20T08:15:14.283Z,100.00
2023-03-20T08:17:44.139Z,100.00
2023-03-20T08:20:13.356Z,100.00
2023-03-20T08:22:42.711Z,100.00
2023-03-20T08:25:11.353Z,100.00
2023-03-20T08:27:39.588Z,100.00
2023-03-20T08:30:10.766Z,100.00
2023-03-20T08:32:38.945Z,100.00
2023-03-20T08:35:16.337Z,100.00
2023-03-20T08:37:50.259Z,100.00
2023-03-20T08:40:18.675Z,100.00
2023-03-20T08:42:47.341Z,100.00
2023-03-20T08:45:17.097Z,100.00
2023-03-20T08:47:45.027Z,100.00
2023-03-20T08:50:13.386Z,100.00
2023-03-20T08:52:44.673Z,100.00
2023-03-20T08:55:13.790Z,100.00
2023-03-20T08:57:41.889Z,100.00
2023-03-20T09:00:12.840Z,100.00
2023-03-20T09:02:42.528Z,100.00
2023-03-20T09:05:11.719Z,100.00
2023-03-20T09:07:39.932Z,100.00
2023-03-20T09:10:09.250Z,100.00
2023-03-20T09:12:37.598Z,100.00
2023-03-20T09:15:07.158Z,100.00
2023-03-20T09:17:35.325Z,100.00
2023-03-20T09:20:06.334Z,100.00
2023-03-20T09:22:34.359Z,100.00
2023-03-20T09:25:02.483Z,100.00
2023-03-20T09:27:30.514Z,100.00
2023-03-20T09:29:58.539Z,100.00
2023-03-20T09:32:26.520Z,100.00
2023-03-20T09:34:54.574Z,100.00
2023-03-20T09:37:24.867Z,100.00
2023-03-20T09:39:52.823Z,100.00
2023-03-20T09:42:33.242Z,100.00
2023-03-20T09:45:09.084Z,100.00
2023-03-20T09:47:46.671Z,100.00
2023-03-20T09:50:25.303Z,100.00
2023-03-20T09:53:07.043Z,100.00
2023-03-20T09:55:37.313Z,100.00
2023-03-20T09:58:16.103Z,100.00
2023-03-20T10:00:47.116Z,100.00
2023-03-20T10:03:22.391Z,100.00
2023-03-20T10:05:57.122Z,99.51
2023-03-20T10:08:31.779Z,99.83
2023-03-20T10:11:15.970Z,100.00
2023-03-20T10:14:02.312Z,100.00
2023-03-20T10:16:43.523Z,100.00
2023-03-20T10:19:22.260Z,100.00
2023-03-20T10:21:53.998Z,100.00
2023-03-20T10:24:29.943Z,99.02
2023-03-20T10:27:04.366Z,97.93
2023-03-20T10:29:46.064Z,95.39
2023-03-20T10:32:20.523Z,94.56
2023-03-20T10:35:12.249Z,94.74
2023-03-20T10:37:58.056Z,93.65
2023-03-20T10:40:38.813Z,95.30
2023-03-20T10:43:16.776Z,95.29
2023-03-20T10:45:49.411Z,94.93
2023-03-20T10:48:24.640Z,94.99
2023-03-20T10:50:56.591Z,95.18
2023-03-20T10:53:33.055Z,95.42
2023-03-20T10:56:07.450Z,94.75
2023-03-20T10:58:38.311Z,94.43
2023-03-20T11:01:06.863Z,93.33
2023-03-20T11:03:38.917Z,93.73
2023-03-20T11:06:14.575Z,93.41
2023-03-20T11:08:47.577Z,93.50
2023-03-20T11:11:23.089Z,94.10
2023-03-20T11:13:51.114Z,93.95
2023-03-20T11:16:22.751Z,94.13
2023-03-20T11:18:54.995Z,95.02
2023-03-20T11:21:26.085Z,93.31
2023-03-20T11:23:55.307Z,93.83
2023-03-20T11:26:37.085Z,94.07
2023-03-20T11:29:08.280Z,93.70
2023-03-20T11:31:38.314Z,92.84
2023-03-20T11:34:31.173Z,92.07
2023-03-20T11:37:10.206Z,91.53
2023-03-20T11:39:41.261Z,91.41
2023-03-20T11:42:24.663Z,91.30
2023-03-20T11:44:59.451Z,91.19
2023-03-20T11:47:29.614Z,91.43
2023-03-20T11:50:00.983Z,91.49
2023-03-20T11:52:32.628Z,89.45
2023-03-20T11:55:04.203Z,89.27
2023-03-20T11:57:38.727Z,89.54
2023-03-20T12:00:18.029Z,90.36
2023-03-20T12:02:46.689Z,88.86
2023-03-20T12:05:37.113Z,89.40
2023-03-20T12:08:10.324Z,88.56
2023-03-20T12:10:42.823Z,88.92
2023-03-20T12:13:18.161Z,89.07
2023-03-20T12:15:50.209Z,89.19
2023-03-20T12:18:26.365Z,89.32
2023-03-20T12:21:04.163Z,89.34
2023-03-20T12:23:35.867Z,88.30
2023-03-20T12:26:07.208Z,89.67
2023-03-20T12:28:44.261Z,87.14
2023-03-20T12:31:22.255Z,87.25
2023-03-20T12:34:03.094Z,86.15
2023-03-20T12:36:34.670Z,85.30
2023-03-20T12:39:05.771Z,84.69
2023-03-20T12:41:41.629Z,84.74
2023-03-20T12:44:39.939Z,82.83
2023-03-20T12:47:24.203Z,82.93
2023-03-20T12:49:58.040Z,83.57
2023-03-20T12:52:39.127Z,84.22
2023-03-20T12:55:18.114Z,84.34
2023-03-20T12:57:58.628Z,84.96
2023-03-20T13:00:34.886Z,84.72
2023-03-20T13:03:18.666Z,85.33
2023-03-20T13:05:53.724Z,85.22
2023-03-20T13:08:45.827Z,85.17
2023-03-20T13:11:23.486Z,85.51
2023-03-20T13:13:56.405Z,85.30
2023-03-20T13:16:40.167Z,85.07
2023-03-20T13:19:15.292Z,85.66
2023-03-20T13:21:56.680Z,85.54
2023-03-20T13:24:34.774Z,86.29
2023-03-20T13:27:14.782Z,86.56
2023-03-20T13:29:51.445Z,86.01
2023-03-20T13:32:31.450Z,86.19
2023-03-20T13:35:29.108Z,86.64
2023-03-20T13:38:01.382Z,87.17
2023-03-20T13:40:39.167Z,86.38
2023-03-20T13:43:20.618Z,87.45
2023-03-20T13:45:57.288Z,87.35
2023-03-20T13:48:33.348Z,87.60
2023-03-20T13:51:11.999Z,88.17
2023-03-20T13:53:51.002Z,88.54
2023-03-20T13:56:29.819Z,88.60
2023-03-20T13:59:16.726Z,88.00
2023-03-20T14:01:54.848Z,88.74
2023-03-20T14:04:25.853Z,88.44
2023-03-20T14:06:56.836Z,88.36
2023-03-20T14:09:31.441Z,89.29
2023-03-20T14:12:03.331Z,90.30
2023-03-20T14:14:33.116Z,89.84
2023-03-20T14:17:10.321Z,89.53
2023-03-20T14:19:40.550Z,90.23
2023-03-20T14:22:17.039Z,90.58
2023-03-20T14:24:56.016Z,90.81
2023-03-20T14:27:42.789Z,90.85
2023-03-20T14:30:40.753Z,90.83
2023-03-20T14:33:24.721Z,90.89
2023-03-20T14:36:18.519Z,90.73
2023-03-20T14:38:55.333Z,91.32
2023-03-20T14:41:28.029Z,91.94
2023-03-20T14:44:07.084Z,92.34
2023-03-20T14:46:45.348Z,93.39
2023-03-20T14:49:49.099Z,92.77
2023-03-20T14:52:46.898Z,93.07
2023-03-20T14:55:33.221Z,93.54
2023-03-20T14:58:06.833Z,93.90
2023-03-20T15:00:37.564Z,94.13
2023-03-20T15:03:09.457Z,94.67
2023-03-20T15:05:39.894Z,94.44
2023-03-20T15:08:12.655Z,95.37
2023-03-20T15:10:48.238Z,94.41
2023-03-20T15:13:20.594Z,94.51
2023-03-20T15:15:57.101Z,94.25
2023-03-20T15:18:27.440Z,95.27
2023-03-20T15:20:57.775Z,95.93
2023-03-20T15:23:27.246Z,96.04
2023-03-20T15:25:55.441Z,96.49
2023-03-20T15:28:25.406Z,96.73
2023-03-20T15:31:00.163Z,96.15
2023-03-20T15:33:32.495Z,96.61
2023-03-20T15:36:08.876Z,98.19
2023-03-20T15:38:41.447Z,97.68
2023-03-20T15:41:25.050Z,96.86
2023-03-20T15:44:06.387Z,96.98
2023-03-20T15:46:34.380Z,96.33
2023-03-20T15:49:02.395Z,96.72
2023-03-20T15:51:30.569Z,96.28
2023-03-20T15:53:59.953Z,96.14
2023-03-20T15:56:28.756Z,96.90
2023-03-20T15:58:57.884Z,96.39
2023-03-20T16:01:27.117Z,96.55
2023-03-20T16:03:59.930Z,97.48
2023-03-20T16:06:29.421Z,95.68
2023-03-20T16:09:01.411Z,96.29
2023-03-20T16:11:38.855Z,95.41
2023-03-20T16:14:11.925Z,94.99
2023-03-20T16:16:40.476Z,95.40
2023-03-20T16:19:09.337Z,96.80
2023-03-20T16:21:40.261Z,94.77
2023-03-20T16:24:15.974Z,93.08
2023-03-20T16:26:46.689Z,93.06
2023-03-20T16:29:16.011Z,93.35
2023-03-20T16:31:49.901Z,93.98
2023-03-20T16:34:22.154Z,92.40
2023-03-20T16:36:56.895Z,91.56
2023-03-20T16:39:28.859Z,91.66
2023-03-20T16:42:20.173Z,93.00
2023-03-20T16:44:48.440Z,94.06
2023-03-20T16:47:20.173Z,92.07
2023-03-20T16:50:04.188Z,90.67
2023-03-20T16:52:36.656Z,91.76
2023-03-20T16:55:07.079Z,92.03
2023-03-20T16:57:38.249Z,93.32
2023-03-20T17:00:09.429Z,92.02
2023-03-20T17:02:39.778Z,91.44
2023-03-20T17:05:13.333Z,92.21
2023-03-20T17:07:51.179Z,92.96
2023-03-20T17:10:24.441Z,92.30
2023-03-20T17:12:52.850Z,92.50
2023-03-20T17:15:22.880Z,92.29
2023-03-20T17:17:50.943Z,94.82
2023-03-20T17:20:22.567Z,94.90
2023-03-20T17:22:50.771Z,93.91
2023-03-20T17:25:19.109Z,94.40
2023-03-20T17:27:49.010Z,93.83
2023-03-20T17:30:19.327Z,95.25
2023-03-20T17:32:47.987Z,93.72
2023-03-20T17:35:16.343Z,94.02
2023-03-20T17:37:44.549Z,94.54
2023-03-20T17:40:20.938Z,94.29
2023-03-20T17:42:50.409Z,94.93
2023-03-20T17:45:20.789Z,94.18
2023-03-20T17:47:49.531Z,96.03
2023-03-20T17:50:24.357Z,94.81
2023-03-20T17:52:52.605Z,94.39
2023-03-20T17:55:20.941Z,96.53
2023-03-20T17:57:53.604Z,96.81
2023-03-20T18:00:24.083Z,98.88
2023-03-20T18:02:52.613Z,95.62
2023-03-20T18:05:24.103Z,95.02
2023-03-20T18:07:52.046Z,96.11
2023-03-20T18:10:26.342Z,95.53
2023-03-20T18:12:55.694Z,95.24
2023-03-20T18:15:23.710Z,96.13
2023-03-20T18:17:52.738Z,95.29
2023-03-20T18:20:27.449Z,93.20
2023-03-20T18:22:55.802Z,95.40
2023-03-20T18:25:25.846Z,96.51
2023-03-20T18:27:55.904Z,94.01
2023-03-20T18:30:27.212Z,95.95
2023-03-20T18:32:55.371Z,94.88
2023-03-20T18:35:23.432Z,95.32
2023-03-20T18:37:51.385Z,93.71
2023-03-20T18:40:21.828Z,92.33
2023-03-20T18:42:52.295Z,92.48
2023-03-20T18:45:22.894Z,91.31
2023-03-20T18:47:51.146Z,93.86
2023-03-20T18:50:24.752Z,91.09
2023-03-20T18:52:53.938Z,91.60
2023-03-20T18:55:26.133Z,91.57
2023-03-20T18:57:54.526Z,91.39
2023-03-20T19:00:28.586Z,89.94
2023-03-20T19:02:58.020Z,90.24
2023-03-20T19:05:30.315Z,89.61
2023-03-20T19:07:59.712Z,90.36
2023-03-20T19:10:30.320Z,89.51
2023-03-20T19:12:58.676Z,91.42
2023-03-20T19:15:30.489Z,90.51
2023-03-20T19:17:58.454Z,89.78
2023-03-20T19:20:36.676Z,89.56
2023-03-20T19:23:06.070Z,89.60
2023-03-20T19:25:34.796Z,90.00
2023-03-20T19:28:03.376Z,89.41
2023-03-20T19:30:35.606Z,89.30
2023-03-20T19:33:04.130Z,88.68
2023-03-20T19:36:02.265Z,87.85
2023-03-20T19:38:22.712Z,88.44
2023-03-20T19:40:52.925Z,89.05
2023-03-20T19:43:21.611Z,88.28
2023-03-20T19:45:57.205Z,89.24
2023-03-20T19:48:43.218Z,89.41
2023-03-20T19:51:16.689Z,89.78
2023-03-20T19:53:46.007Z,90.86
2023-03-20T19:56:15.628Z,89.87
2023-03-20T19:58:44.423Z,90.33
2023-03-20T20:01:17.647Z,92.61
2023-03-20T20:03:46.466Z,92.48
2023-03-20T20:06:14.749Z,92.67
2023-03-20T20:08:48.340Z,90.93
2023-03-20T20:11:17.381Z,91.33
2023-03-20T20:14:09.090Z,92.57
2023-03-20T20:16:36.644Z,91.20
2023-03-20T20:19:05.305Z,91.79
2023-03-20T20:24:23.491Z,91.30
2023-03-20T20:26:56.886Z,92.07
2023-03-20T20:29:31.388Z,90.79
2023-03-20T20:32:01.808Z,90.29
2023-03-20T20:40:07.860Z,91.78
2023-03-20T20:42:37.009Z,90.89
2023-03-20T20:45:05.697Z,90.16
2023-03-20T20:47:35.117Z,90.54
2023-03-20T20:50:03.959Z,87.45
2023-03-20T20:52:32.199Z,85.73
2023-03-20T20:55:14.379Z,85.77
2023-03-20T20:57:49.229Z,85.39
2023-03-20T21:00:18.337Z,83.75
2023-03-20T21:02:47.708Z,82.78
2023-03-20T21:05:17.357Z,82.98
2023-03-20T21:07:46.677Z,83.38
2023-03-20T21:10:18.084Z,84.16
2023-03-20T21:12:58.491Z,82.87
2023-03-20T21:15:27.327Z,83.08
2023-03-20T21:18:01.699Z,84.89
2023-03-20T21:20:30.444Z,82.40
2023-03-20T21:22:58.755Z,79.94
2023-03-20T21:25:39.084Z,81.79
2023-03-20T21:28:08.242Z,80.41
2023-03-20T21:30:41.578Z,80.44
2023-03-20T21:33:13.155Z,80.16
2023-03-20T21:35:41.587Z,80.91
2023-03-20T21:40:57.492Z,79.69
2023-03-20T21:43:27.148Z,79.40
2023-03-20T21:52:29.258Z,79.80
2023-03-20T21:55:00.749Z,79.43
2023-03-20T21:58:04.207Z,79.88
2023-03-20T22:02:49.882Z,80.19
2023-03-20T22:05:58.700Z,79.36
2023-03-20T22:09:06.518Z,79.69
2023-03-20T22:20:09.052Z,80.50
2023-03-20T22:31:34.607Z,78.59
2023-03-20T22:37:11.002Z,78.45
2023-03-20T22:39:45.786Z,77.23
2023-03-20T22:44:59.664Z,77.74
2023-03-20T22:47:29.528Z,77.58
2023-03-20T22:49:57.512Z,77.82
2023-03-20T22:52:37.902Z,78.03
2023-03-20T22:55:11.494Z,78.17
2023-03-20T22:57:47.704Z,78.29
2023-03-20T23:00:20.914Z,79.16
2023-03-20T23:02:48.849Z,78.87
2023-03-20T23:05:17.192Z,78.17
2023-03-20T23:07:45.457Z,78.52
2023-03-20T23:10:15.019Z,78.78
2023-03-20T23:12:44.210Z,78.95
2023-03-20T23:15:12.748Z,79.10
2023-03-20T23:17:40.619Z,78.74
2023-03-20T23:20:12.980Z,79.93
2023-03-20T23:22:41.861Z,79.08
2023-03-20T23:25:20.934Z,79.41
2023-03-20T23:27:58.372Z,80.16
2023-03-20T23:30:38.074Z,81.30
2023-03-20T23:33:11.744Z,79.76
2023-03-20T23:35:39.679Z,80.11
2023-03-20T23:38:07.600Z,79.94
2023-03-20T23:40:36.293Z,79.44
2023-03-20T23:43:05.936Z,80.00
2023-03-20T23:45:33.866Z,80.26
2023-03-20T23:48:01.863Z,80.65
2023-03-20T23:50:42.615Z,81.17
2023-03-20T23:53:20.953Z,80.54
2023-03-20T23:55:50.276Z,81.35
2023-03-20T23:58:20.884Z,82.33
